sensor_id;sensor_type;location;lat;lon;timestamp;P1;durP1;ratioP1;P2;durP2;ratioP2
6251;SDS011;3159;52.414;9.784;2022-08-11T00:01:49;1.43;;;1.00;;
6251;SDS011;3159;52.414;9.784;2022-08-11T00:04:20;1.73;;;1.30;;
6251;SDS011;3159;52.414;9.784;2022-08-11T00:06:49;2.30;;;1.20;;
6251;SDS011;3159;52.414;9.784;2022-08-11T00:09:18;1.27;;;1.17;;
6251;SDS011;3159;52.414;9.784;2022-08-11T00:11:56;3.00;;;1.27;;
6251;SDS011;3159;52.414;9.784;2022-08-11T00:14:24;1.97;;;1.20;;
6251;SDS011;3159;52.414;9.784;2022-08-11T00:16:56;1.43;;;1.20;;
6251;SDS011;3159;52.414;9.784;2022-08-11T00:19:24;1.10;;;0.97;;
6251;SDS011;3159;52.414;9.784;2022-08-11T00:21:53;0.90;;;0.90;;
6251;SDS011;3159;52.414;9.784;2022-08-11T00:24:21;2.30;;;1.10;;
6251;SDS011;3159;52.414;9.784;2022-08-11T00:26:50;1.20;;;1.00;;
6251;SDS011;3159;52.414;9.784;2022-08-11T00:29:18;1.20;;;1.10;;
6251;SDS011;3159;52.414;9.784;2022-08-11T00:31:47;1.83;;;1.20;;
6251;SDS011;3159;52.414;9.784;2022-08-11T00:34:18;1.23;;;1.10;;
6251;SDS011;3159;52.414;9.784;2022-08-11T00:36:48;2.10;;;1.40;;
6251;SDS011;3159;52.414;9.784;2022-08-11T00:39:18;1.40;;;1.17;;
6251;SDS011;3159;52.414;9.784;2022-08-11T00:41:54;1.50;;;1.23;;
6251;SDS011;3159;52.414;9.784;2022-08-11T00:44:35;0.90;;;0.90;;
6251;SDS011;3159;52.414;9.784;2022-08-11T00:47:14;2.77;;;1.17;;
6251;SDS011;3159;52.414;9.784;2022-08-11T00:49:54;1.40;;;1.30;;
6251;SDS011;3159;52.414;9.784;2022-08-11T01:01:33;1.40;;;1.27;;
6251;SDS011;3159;52.414;9.784;2022-08-11T01:04:22;1.73;;;1.00;;
6251;SDS011;3159;52.414;9.784;2022-08-11T01:07:17;1.97;;;1.30;;
6251;SDS011;3159;52.414;9.784;2022-08-11T01:10:10;1.87;;;1.37;;
6251;SDS011;3159;52.414;9.784;2022-08-11T01:12:57;1.30;;;1.10;;
6251;SDS011;3159;52.414;9.784;2022-08-11T01:21:52;1.60;;;1.50;;
6251;SDS011;3159;52.414;9.784;2022-08-11T01:24:55;1.33;;;1.23;;
6251;SDS011;3159;52.414;9.784;2022-08-11T01:37:10;1.77;;;1.40;;
6251;SDS011;3159;52.414;9.784;2022-08-11T01:43:03;2.00;;;1.43;;
6251;SDS011;3159;52.414;9.784;2022-08-11T01:46:03;1.37;;;0.90;;
6251;SDS011;3159;52.414;9.784;2022-08-11T01:48:40;1.30;;;1.20;;
6251;SDS011;3159;52.414;9.784;2022-08-11T01:51:21;2.37;;;1.40;;
6251;SDS011;3159;52.414;9.784;2022-08-11T01:54:02;1.30;;;1.20;;
6251;SDS011;3159;52.414;9.784;2022-08-11T01:56:33;1.30;;;0.90;;
6251;SDS011;3159;52.414;9.784;2022-08-11T01:59:13;1.33;;;1.20;;
6251;SDS011;3159;52.414;9.784;2022-08-11T02:04:44;1.30;;;1.20;;
6251;SDS011;3159;52.414;9.784;2022-08-11T02:07:21;1.30;;;1.20;;
6251;SDS011;3159;52.414;9.784;2022-08-11T02:10:06;1.93;;;1.20;;
6251;SDS011;3159;52.414;9.784;2022-08-11T02:12:59;1.57;;;1.10;;
6251;SDS011;3159;52.414;9.784;2022-08-11T02:15:38;1.47;;;1.13;;
6251;SDS011;3159;52.414;9.784;2022-08-11T02:18:12;2.90;;;1.63;;
6251;SDS011;3159;52.414;9.784;2022-08-11T02:20:47;2.17;;;1.60;;
6251;SDS011;3159;52.414;9.784;2022-08-11T02:23:38;2.53;;;2.13;;
6251;SDS011;3159;52.414;9.784;2022-08-11T02:26:17;3.70;;;1.97;;
6251;SDS011;3159;52.414;9.784;2022-08-11T02:28:50;2.57;;;1.97;;
6251;SDS011;3159;52.414;9.784;2022-08-11T02:31:27;2.97;;;2.30;;
6251;SDS011;3159;52.414;9.784;2022-08-11T02:34:27;2.63;;;1.90;;
6251;SDS011;3159;52.414;9.784;2022-08-11T02:37:02;1.53;;;1.43;;
6251;SDS011;3159;52.414;9.784;2022-08-11T02:39:42;1.50;;;1.30;;
6251;SDS011;3159;52.414;9.784;2022-08-11T02:42:21;1.50;;;1.40;;
6251;SDS011;3159;52.414;9.784;2022-08-11T02:45:02;2.73;;;1.57;;
6251;SDS011;3159;52.414;9.784;2022-08-11T02:47:40;1.43;;;1.33;;
6251;SDS011;3159;52.414;9.784;2022-08-11T02:50:35;3.00;;;2.00;;
6251;SDS011;3159;52.414;9.784;2022-08-11T02:53:08;2.47;;;1.70;;
6251;SDS011;3159;52.414;9.784;2022-08-11T02:55:46;2.73;;;1.67;;
6251;SDS011;3159;52.414;9.784;2022-08-11T02:58:30;2.87;;;1.77;;
6251;SDS011;3159;52.414;9.784;2022-08-11T03:01:07;1.80;;;1.70;;
6251;SDS011;3159;52.414;9.784;2022-08-11T03:03:43;2.27;;;1.90;;
6251;SDS011;3159;52.414;9.784;2022-08-11T03:06:19;1.60;;;1.50;;
6251;SDS011;3159;52.414;9.784;2022-08-11T03:08:52;1.40;;;1.30;;
6251;SDS011;3159;52.414;9.784;2022-08-11T03:11:29;1.50;;;1.40;;
6251;SDS011;3159;52.414;9.784;2022-08-11T03:14:27;2.17;;;1.40;;
6251;SDS011;3159;52.414;9.784;2022-08-11T03:17:24;2.37;;;1.40;;
6251;SDS011;3159;52.414;9.784;2022-08-11T03:20:02;2.07;;;1.50;;
6251;SDS011;3159;52.414;9.784;2022-08-11T03:22:36;1.40;;;1.33;;
6251;SDS011;3159;52.414;9.784;2022-08-11T03:25:18;1.30;;;1.20;;
6251;SDS011;3159;52.414;9.784;2022-08-11T03:27:57;1.97;;;1.77;;
6251;SDS011;3159;52.414;9.784;2022-08-11T03:30:32;1.47;;;1.30;;
6251;SDS011;3159;52.414;9.784;2022-08-11T03:33:17;1.67;;;1.57;;
6251;SDS011;3159;52.414;9.784;2022-08-11T03:36:09;2.33;;;1.57;;
6251;SDS011;3159;52.414;9.784;2022-08-11T03:38:53;1.70;;;1.60;;
6251;SDS011;3159;52.414;9.784;2022-08-11T03:41:30;2.33;;;1.40;;
6251;SDS011;3159;52.414;9.784;2022-08-11T03:44:16;1.60;;;1.50;;
6251;SDS011;3159;52.414;9.784;2022-08-11T03:47:10;1.70;;;1.60;;
6251;SDS011;3159;52.414;9.784;2022-08-11T03:50:03;2.40;;;2.20;;
6251;SDS011;3159;52.414;9.784;2022-08-11T03:52:46;2.53;;;2.03;;
6251;SDS011;3159;52.414;9.784;2022-08-11T03:55:19;2.33;;;1.70;;
6251;SDS011;3159;52.414;9.784;2022-08-11T04:01:00;2.97;;;1.73;;
6251;SDS011;3159;52.414;9.784;2022-08-11T04:06:59;1.67;;;1.57;;
6251;SDS011;3159;52.414;9.784;2022-08-11T04:10:20;1.57;;;1.47;;
6251;SDS011;3159;52.414;9.784;2022-08-11T04:16:48;2.37;;;1.73;;
6251;SDS011;3159;52.414;9.784;2022-08-11T04:19:53;2.90;;;1.90;;
6251;SDS011;3159;52.414;9.784;2022-08-11T04:22:56;4.53;;;2.30;;
6251;SDS011;3159;52.414;9.784;2022-08-11T04:25:50;3.43;;;2.00;;
6251;SDS011;3159;52.414;9.784;2022-08-11T04:28:35;2.40;;;1.93;;
6251;SDS011;3159;52.414;9.784;2022-08-11T04:31:18;3.53;;;1.60;;
6251;SDS011;3159;52.414;9.784;2022-08-11T04:34:11;2.77;;;1.80;;
6251;SDS011;3159;52.414;9.784;2022-08-11T04:37:09;3.13;;;2.07;;
6251;SDS011;3159;52.414;9.784;2022-08-11T04:46:21;2.00;;;1.70;;
6251;SDS011;3159;52.414;9.784;2022-08-11T04:49:07;3.13;;;1.73;;
6251;SDS011;3159;52.414;9.784;2022-08-11T04:52:14;1.73;;;1.63;;
6251;SDS011;3159;52.414;9.784;2022-08-11T04:55:28;2.33;;;2.03;;
6251;SDS011;3159;52.414;9.784;2022-08-11T04:58:24;1.73;;;1.63;;
6251;SDS011;3159;52.414;9.784;2022-08-11T05:01:26;2.07;;;1.80;;
6251;SDS011;3159;52.414;9.784;2022-08-11T05:04:11;1.57;;;1.30;;
6251;SDS011;3159;52.414;9.784;2022-08-11T05:07:19;1.90;;;1.80;;
6251;SDS011;3159;52.414;9.784;2022-08-11T05:10:13;1.90;;;1.80;;
6251;SDS011;3159;52.414;9.784;2022-08-11T05:12:49;2.07;;;1.67;;
6251;SDS011;3159;52.414;9.784;2022-08-11T05:15:20;1.80;;;1.67;;
6251;SDS011;3159;52.414;9.784;2022-08-11T05:18:13;2.40;;;1.83;;
6251;SDS011;3159;52.414;9.784;2022-08-11T05:21:01;2.67;;;2.10;;
6251;SDS011;3159;52.414;9.784;2022-08-11T05:23:52;2.10;;;1.90;;
6251;SDS011;3159;52.414;9.784;2022-08-11T05:26:42;1.80;;;1.70;;
6251;SDS011;3159;52.414;9.784;2022-08-11T05:29:42;3.90;;;1.93;;
6251;SDS011;3159;52.414;9.784;2022-08-11T05:32:33;1.50;;;1.40;;
6251;SDS011;3159;52.414;9.784;2022-08-11T05:35:23;2.03;;;1.83;;
6251;SDS011;3159;52.414;9.784;2022-08-11T05:37:53;1.90;;;1.73;;
6251;SDS011;3159;52.414;9.784;2022-08-11T05:40:45;2.93;;;1.73;;
6251;SDS011;3159;52.414;9.784;2022-08-11T05:43:32;2.13;;;1.93;;
6251;SDS011;3159;52.414;9.784;2022-08-11T05:46:19;2.03;;;1.80;;
6251;SDS011;3159;52.414;9.784;2022-08-11T05:49:07;3.93;;;1.67;;
6251;SDS011;3159;52.414;9.784;2022-08-11T05:51:52;3.20;;;2.00;;
6251;SDS011;3159;52.414;9.784;2022-08-11T05:54:37;3.20;;;2.17;;
6251;SDS011;3159;52.414;9.784;2022-08-11T05:57:26;3.03;;;2.50;;
6251;SDS011;3159;52.414;9.784;2022-08-11T06:00:00;3.43;;;2.10;;
6251;SDS011;3159;52.414;9.784;2022-08-11T06:02:39;4.00;;;1.80;;
6251;SDS011;3159;52.414;9.784;2022-08-11T06:05:07;3.07;;;2.03;;
6251;SDS011;3159;52.414;9.784;2022-08-11T06:07:35;2.53;;;1.87;;
6251;SDS011;3159;52.414;9.784;2022-08-11T06:10:03;2.47;;;1.90;;
6251;SDS011;3159;52.414;9.784;2022-08-11T06:12:32;1.83;;;1.70;;
6251;SDS011;3159;52.414;9.784;2022-08-11T06:15:02;2.10;;;1.70;;
6251;SDS011;3159;52.414;9.784;2022-08-11T06:17:31;2.73;;;1.90;;
6251;SDS011;3159;52.414;9.784;2022-08-11T06:20:03;1.80;;;1.70;;
6251;SDS011;3159;52.414;9.784;2022-08-11T06:22:32;1.83;;;1.67;;
6251;SDS011;3159;52.414;9.784;2022-08-11T06:25:00;2.63;;;1.50;;
6251;SDS011;3159;52.414;9.784;2022-08-11T06:27:29;5.13;;;1.90;;
6251;SDS011;3159;52.414;9.784;2022-08-11T06:29:58;2.23;;;1.93;;
6251;SDS011;3159;52.414;9.784;2022-08-11T06:32:27;3.70;;;2.10;;
6251;SDS011;3159;52.414;9.784;2022-08-11T06:35:11;1.70;;;1.50;;
6251;SDS011;3159;52.414;9.784;2022-08-11T06:37:52;3.60;;;1.97;;
6251;SDS011;3159;52.414;9.784;2022-08-11T06:40:34;1.97;;;1.70;;
6251;SDS011;3159;52.414;9.784;2022-08-11T06:43:09;3.07;;;2.10;;
6251;SDS011;3159;52.414;9.784;2022-08-11T06:45:47;1.53;;;1.43;;
6251;SDS011;3159;52.414;9.784;2022-08-11T06:48:20;1.83;;;1.70;;
6251;SDS011;3159;52.414;9.784;2022-08-11T06:50:50;2.03;;;1.83;;
6251;SDS011;3159;52.414;9.784;2022-08-11T06:53:37;2.90;;;1.87;;
6251;SDS011;3159;52.414;9.784;2022-08-11T06:56:07;3.07;;;1.70;;
6251;SDS011;3159;52.414;9.784;2022-08-11T06:58:53;2.07;;;1.70;;
6251;SDS011;3159;52.414;9.784;2022-08-11T07:01:40;2.73;;;1.80;;
6251;SDS011;3159;52.414;9.784;2022-08-11T07:04:17;2.47;;;1.90;;
6251;SDS011;3159;52.414;9.784;2022-08-11T07:06:56;2.13;;;1.40;;
6251;SDS011;3159;52.414;9.784;2022-08-11T07:10:03;2.50;;;1.70;;
6251;SDS011;3159;52.414;9.784;2022-08-11T07:13:16;2.10;;;1.97;;
6251;SDS011;3159;52.414;9.784;2022-08-11T07:16:04;3.03;;;1.60;;
6251;SDS011;3159;52.414;9.784;2022-08-11T07:18:33;3.20;;;1.60;;
6251;SDS011;3159;52.414;9.784;2022-08-11T07:21:21;3.67;;;1.90;;
6251;SDS011;3159;52.414;9.784;2022-08-11T07:24:12;1.97;;;1.87;;
6251;SDS011;3159;52.414;9.784;2022-08-11T07:26:59;2.37;;;1.67;;
6251;SDS011;3159;52.414;9.784;2022-08-11T07:29:47;2.50;;;1.40;;
6251;SDS011;3159;52.414;9.784;2022-08-11T07:32:19;3.13;;;1.93;;
6251;SDS011;3159;52.414;9.784;2022-08-11T07:34:51;2.77;;;1.50;;
6251;SDS011;3159;52.414;9.784;2022-08-11T07:37:25;3.13;;;1.93;;
6251;SDS011;3159;52.414;9.784;2022-08-11T07:39:57;2.37;;;1.80;;
6251;SDS011;3159;52.414;9.784;2022-08-11T07:42:26;4.87;;;1.63;;
6251;SDS011;3159;52.414;9.784;2022-08-11T07:45:00;1.53;;;1.37;;
6251;SDS011;3159;52.414;9.784;2022-08-11T07:47:48;5.33;;;1.80;;
6251;SDS011;3159;52.414;9.784;2022-08-11T07:50:34;5.43;;;2.70;;
6251;SDS011;3159;52.414;9.784;2022-08-11T07:53:23;3.13;;;1.60;;
6251;SDS011;3159;52.414;9.784;2022-08-11T07:55:52;2.93;;;1.53;;
6251;SDS011;3159;52.414;9.784;2022-08-11T07:58:21;2.57;;;1.80;;
6251;SDS011;3159;52.414;9.784;2022-08-11T08:01:08;2.43;;;1.50;;
6251;SDS011;3159;52.414;9.784;2022-08-11T08:03:54;2.20;;;1.60;;
6251;SDS011;3159;52.414;9.784;2022-08-11T08:06:41;2.40;;;1.50;;
6251;SDS011;3159;52.414;9.784;2022-08-11T08:09:26;2.77;;;1.70;;
6251;SDS011;3159;52.414;9.784;2022-08-11T08:12:12;2.73;;;1.50;;
6251;SDS011;3159;52.414;9.784;2022-08-11T08:14:58;2.43;;;1.60;;
6251;SDS011;3159;52.414;9.784;2022-08-11T08:17:48;1.70;;;1.57;;
6251;SDS011;3159;52.414;9.784;2022-08-11T08:20:22;3.53;;;1.60;;
6251;SDS011;3159;52.414;9.784;2022-08-11T08:22:51;4.80;;;1.70;;
6251;SDS011;3159;52.414;9.784;2022-08-11T08:25:22;2.83;;;1.70;;
6251;SDS011;3159;52.414;9.784;2022-08-11T08:27:51;2.53;;;1.73;;
6251;SDS011;3159;52.414;9.784;2022-08-11T08:30:20;1.73;;;1.53;;
6251;SDS011;3159;52.414;9.784;2022-08-11T08:33:07;2.23;;;1.93;;
6251;SDS011;3159;52.414;9.784;2022-08-11T08:35:35;2.60;;;1.73;;
6251;SDS011;3159;52.414;9.784;2022-08-11T08:38:03;1.87;;;1.70;;
6251;SDS011;3159;52.414;9.784;2022-08-11T08:40:30;2.70;;;1.80;;
6251;SDS011;3159;52.414;9.784;2022-08-11T08:43:01;2.30;;;1.50;;
6251;SDS011;3159;52.414;9.784;2022-08-11T08:45:34;2.47;;;1.60;;
6251;SDS011;3159;52.414;9.784;2022-08-11T08:48:03;1.70;;;1.40;;
6251;SDS011;3159;52.414;9.784;2022-08-11T08:50:34;2.60;;;1.63;;
6251;SDS011;3159;52.414;9.784;2022-08-11T08:53:22;1.80;;;1.57;;
6251;SDS011;3159;52.414;9.784;2022-08-11T08:55:53;1.63;;;1.50;;
6251;SDS011;3159;52.414;9.784;2022-08-11T08:58:24;2.83;;;1.57;;
6251;SDS011;3159;52.414;9.784;2022-08-11T09:00:53;2.40;;;1.50;;
6251;SDS011;3159;52.414;9.784;2022-08-11T09:03:21;3.80;;;1.43;;
6251;SDS011;3159;52.414;9.784;2022-08-11T09:05:48;1.93;;;1.60;;
6251;SDS011;3159;52.414;9.784;2022-08-11T09:08:19;2.03;;;1.50;;
6251;SDS011;3159;52.414;9.784;2022-08-11T09:10:47;1.60;;;1.40;;
6251;SDS011;3159;52.414;9.784;2022-08-11T09:13:36;1.63;;;1.53;;
6251;SDS011;3159;52.414;9.784;2022-08-11T09:16:08;1.40;;;1.30;;
6251;SDS011;3159;52.414;9.784;2022-08-11T09:18:36;3.63;;;1.30;;
6251;SDS011;3159;52.414;9.784;2022-08-11T09:21:04;2.13;;;1.47;;
6251;SDS011;3159;52.414;9.784;2022-08-11T09:23:32;2.63;;;1.20;;
6251;SDS011;3159;52.414;9.784;2022-08-11T09:26:16;2.33;;;1.20;;
6251;SDS011;3159;52.414;9.784;2022-08-11T09:29:03;1.10;;;1.00;;
6251;SDS011;3159;52.414;9.784;2022-08-11T09:31:30;1.10;;;1.00;;
6251;SDS011;3159;52.414;9.784;2022-08-11T09:33:58;1.10;;;1.00;;
6251;SDS011;3159;52.414;9.784;2022-08-11T09:36:27;1.00;;;1.00;;
6251;SDS011;3159;52.414;9.784;2022-08-11T09:39:12;1.60;;;1.10;;
6251;SDS011;3159;52.414;9.784;2022-08-11T09:41:58;3.07;;;1.13;;
6251;SDS011;3159;52.414;9.784;2022-08-11T09:44:28;1.13;;;1.03;;
6251;SDS011;3159;52.414;9.784;2022-08-11T09:47:19;1.20;;;1.10;;
6251;SDS011;3159;52.414;9.784;2022-08-11T09:49:48;1.10;;;1.00;;
6251;SDS011;3159;52.414;9.784;2022-08-11T09:52:17;2.40;;;1.10;;
6251;SDS011;3159;52.414;9.784;2022-08-11T09:54:45;1.80;;;1.17;;
6251;SDS011;3159;52.414;9.784;2022-08-11T09:57:16;0.90;;;0.90;;
6251;SDS011;3159;52.414;9.784;2022-08-11T10:00:04;0.77;;;0.77;;
6251;SDS011;3159;52.414;9.784;2022-08-11T10:02:33;1.57;;;1.10;;
6251;SDS011;3159;52.414;9.784;2022-08-11T10:05:05;1.57;;;1.13;;
6251;SDS011;3159;52.414;9.784;2022-08-11T10:07:51;1.47;;;0.90;;
6251;SDS011;3159;52.414;9.784;2022-08-11T10:10:19;1.37;;;0.87;;
6251;SDS011;3159;52.414;9.784;2022-08-11T10:12:49;2.70;;;1.30;;
6251;SDS011;3159;52.414;9.784;2022-08-11T10:15:20;1.00;;;0.83;;
6251;SDS011;3159;52.414;9.784;2022-08-11T10:18:01;0.83;;;0.83;;
6251;SDS011;3159;52.414;9.784;2022-08-11T10:20:49;2.20;;;0.90;;
6251;SDS011;3159;52.414;9.784;2022-08-11T10:23:19;1.43;;;1.20;;
6251;SDS011;3159;52.414;9.784;2022-08-11T10:26:04;1.23;;;1.10;;
6251;SDS011;3159;52.414;9.784;2022-08-11T10:28:51;1.67;;;1.20;;
6251;SDS011;3159;52.414;9.784;2022-08-11T10:31:20;2.03;;;1.30;;
6251;SDS011;3159;52.414;9.784;2022-08-11T10:34:05;2.50;;;1.20;;
6251;SDS011;3159;52.414;9.784;2022-08-11T10:36:34;1.53;;;1.13;;
6251;SDS011;3159;52.414;9.784;2022-08-11T10:39:07;3.10;;;1.30;;
6251;SDS011;3159;52.414;9.784;2022-08-11T10:41:41;1.20;;;0.90;;
6251;SDS011;3159;52.414;9.784;2022-08-11T10:44:28;1.47;;;1.23;;
6251;SDS011;3159;52.414;9.784;2022-08-11T10:46:59;1.53;;;1.00;;
6251;SDS011;3159;52.414;9.784;2022-08-11T10:49:44;1.20;;;1.10;;
6251;SDS011;3159;52.414;9.784;2022-08-11T10:52:32;1.10;;;1.00;;
6251;SDS011;3159;52.414;9.784;2022-08-11T10:55:18;1.83;;;1.13;;
6251;SDS011;3159;52.414;9.784;2022-08-11T10:58:02;2.40;;;2.13;;
6251;SDS011;3159;52.414;9.784;2022-08-11T11:00:47;1.53;;;1.30;;
6251;SDS011;3159;52.414;9.784;2022-08-11T11:03:16;2.67;;;1.60;;
6251;SDS011;3159;52.414;9.784;2022-08-11T11:05:44;1.77;;;1.40;;
6251;SDS011;3159;52.414;9.784;2022-08-11T11:08:13;1.40;;;1.30;;
6251;SDS011;3159;52.414;9.784;2022-08-11T11:10:55;2.03;;;1.40;;
6251;SDS011;3159;52.414;9.784;2022-08-11T11:13:23;2.10;;;1.33;;
6251;SDS011;3159;52.414;9.784;2022-08-11T11:16:10;1.60;;;1.17;;
6251;SDS011;3159;52.414;9.784;2022-08-11T11:18:57;2.20;;;1.30;;
6251;SDS011;3159;52.414;9.784;2022-08-11T11:21:29;3.90;;;1.53;;
6251;SDS011;3159;52.414;9.784;2022-08-11T11:24:00;1.30;;;1.20;;
6251;SDS011;3159;52.414;9.784;2022-08-11T11:26:36;1.83;;;1.57;;
6251;SDS011;3159;52.414;9.784;2022-08-11T11:29:19;1.50;;;1.27;;
6251;SDS011;3159;52.414;9.784;2022-08-11T11:32:01;1.27;;;1.17;;
6251;SDS011;3159;52.414;9.784;2022-08-11T11:37:52;2.20;;;1.70;;
6251;SDS011;3159;52.414;9.784;2022-08-11T11:40:20;1.60;;;1.17;;
6251;SDS011;3159;52.414;9.784;2022-08-11T11:42:48;3.03;;;1.60;;
6251;SDS011;3159;52.414;9.784;2022-08-11T11:45:17;2.03;;;1.30;;
6251;SDS011;3159;52.414;9.784;2022-08-11T11:47:46;1.50;;;1.40;;
6251;SDS011;3159;52.414;9.784;2022-08-11T11:50:17;1.40;;;1.30;;
6251;SDS011;3159;52.414;9.784;2022-08-11T11:52:50;1.80;;;1.30;;
6251;SDS011;3159;52.414;9.784;2022-08-11T11:55:20;2.93;;;1.40;;
6251;SDS011;3159;52.414;9.784;2022-08-11T11:57:48;1.60;;;1.50;;
6251;SDS011;3159;52.414;9.784;2022-08-11T12:00:33;1.40;;;1.30;;
6251;SDS011;3159;52.414;9.784;2022-08-11T12:03:18;2.73;;;1.60;;
6251;SDS011;3159;52.414;9.784;2022-08-11T12:05:46;2.23;;;1.43;;
6251;SDS011;3159;52.414;9.784;2022-08-11T12:08:15;1.50;;;1.37;;
6251;SDS011;3159;52.414;9.784;2022-08-11T12:10:44;1.60;;;1.50;;
6251;SDS011;3159;52.414;9.784;2022-08-11T12:13:14;1.40;;;1.30;;
6251;SDS011;3159;52.414;9.784;2022-08-11T12:16:00;1.50;;;1.40;;
6251;SDS011;3159;52.414;9.784;2022-08-11T12:18:30;1.27;;;1.17;;
6251;SDS011;3159;52.414;9.784;2022-08-11T12:20:59;1.77;;;1.67;;
6251;SDS011;3159;52.414;9.784;2022-08-11T12:23:28;3.87;;;1.50;;
6251;SDS011;3159;52.414;9.784;2022-08-11T12:26:14;1.73;;;1.40;;
6251;SDS011;3159;52.414;9.784;2022-08-11T12:29:00;1.40;;;1.30;;
6251;SDS011;3159;52.414;9.784;2022-08-11T12:31:29;1.70;;;1.50;;
6251;SDS011;3159;52.414;9.784;2022-08-11T12:34:00;1.67;;;1.40;;
6251;SDS011;3159;52.414;9.784;2022-08-11T12:36:29;3.43;;;1.53;;
6251;SDS011;3159;52.414;9.784;2022-08-11T12:39:03;1.47;;;1.37;;
6251;SDS011;3159;52.414;9.784;2022-08-11T12:41:34;1.53;;;1.43;;
6251;SDS011;3159;52.414;9.784;2022-08-11T12:44:21;1.30;;;1.20;;
6251;SDS011;3159;52.414;9.784;2022-08-11T12:47:08;2.17;;;1.20;;
6251;SDS011;3159;52.414;9.784;2022-08-11T12:49:40;2.37;;;1.47;;
6251;SDS011;3159;52.414;9.784;2022-08-11T12:52:28;2.90;;;1.20;;
6251;SDS011;3159;52.414;9.784;2022-08-11T12:55:03;1.63;;;1.40;;
6251;SDS011;3159;52.414;9.784;2022-08-11T12:57:35;3.33;;;1.20;;
6251;SDS011;3159;52.414;9.784;2022-08-11T13:00:36;1.40;;;1.30;;
6251;SDS011;3159;52.414;9.784;2022-08-11T13:03:20;1.83;;;1.73;;
6251;SDS011;3159;52.414;9.784;2022-08-11T13:06:06;1.40;;;1.37;;
6251;SDS011;3159;52.414;9.784;2022-08-11T13:08:34;1.87;;;1.67;;
6251;SDS011;3159;52.414;9.784;2022-08-11T13:11:05;2.07;;;1.70;;
6251;SDS011;3159;52.414;9.784;2022-08-11T13:13:50;1.50;;;1.40;;
6251;SDS011;3159;52.414;9.784;2022-08-11T13:16:20;1.60;;;1.50;;
6251;SDS011;3159;52.414;9.784;2022-08-11T13:18:48;2.50;;;1.53;;
6251;SDS011;3159;52.414;9.784;2022-08-11T13:21:16;2.10;;;1.40;;
6251;SDS011;3159;52.414;9.784;2022-08-11T13:23:44;2.63;;;1.50;;
6251;SDS011;3159;52.414;9.784;2022-08-11T13:26:13;3.47;;;1.50;;
6251;SDS011;3159;52.414;9.784;2022-08-11T13:28:40;1.33;;;1.20;;
6251;SDS011;3159;52.414;9.784;2022-08-11T13:31:07;1.17;;;1.17;;
6251;SDS011;3159;52.414;9.784;2022-08-11T13:33:38;1.70;;;1.57;;
6251;SDS011;3159;52.414;9.784;2022-08-11T13:36:06;1.13;;;1.10;;
6251;SDS011;3159;52.414;9.784;2022-08-11T13:38:35;1.50;;;1.40;;
6251;SDS011;3159;52.414;9.784;2022-08-11T13:41:04;1.53;;;1.40;;
6251;SDS011;3159;52.414;9.784;2022-08-11T13:43:53;1.17;;;1.17;;
6251;SDS011;3159;52.414;9.784;2022-08-11T13:46:22;1.50;;;1.40;;
6251;SDS011;3159;52.414;9.784;2022-08-11T13:48:49;1.80;;;1.30;;
6251;SDS011;3159;52.414;9.784;2022-08-11T13:51:18;1.50;;;1.40;;
6251;SDS011;3159;52.414;9.784;2022-08-11T13:54:02;1.40;;;1.30;;
6251;SDS011;3159;52.414;9.784;2022-08-11T13:56:31;1.40;;;1.30;;
6251;SDS011;3159;52.414;9.784;2022-08-11T13:59:02;2.63;;;1.33;;
6251;SDS011;3159;52.414;9.784;2022-08-11T14:01:30;3.70;;;1.50;;
6251;SDS011;3159;52.414;9.784;2022-08-11T14:04:00;6.70;;;2.00;;
6251;SDS011;3159;52.414;9.784;2022-08-11T14:06:30;1.40;;;1.30;;
6251;SDS011;3159;52.414;9.784;2022-08-11T14:08:59;2.10;;;1.20;;
6251;SDS011;3159;52.414;9.784;2022-08-11T14:11:27;1.43;;;1.30;;
6251;SDS011;3159;52.414;9.784;2022-08-11T14:14:16;1.40;;;1.30;;
6251;SDS011;3159;52.414;9.784;2022-08-11T14:16:48;2.07;;;1.20;;
6251;SDS011;3159;52.414;9.784;2022-08-11T14:19:17;1.53;;;1.30;;
6251;SDS011;3159;52.414;9.784;2022-08-11T14:21:49;2.00;;;1.20;;
6251;SDS011;3159;52.414;9.784;2022-08-11T14:24:35;1.30;;;1.20;;
6251;SDS011;3159;52.414;9.784;2022-08-11T14:27:04;1.30;;;1.20;;
6251;SDS011;3159;52.414;9.784;2022-08-11T14:29:34;1.40;;;1.27;;
6251;SDS011;3159;52.414;9.784;2022-08-11T14:32:04;2.30;;;1.50;;
6251;SDS011;3159;52.414;9.784;2022-08-11T14:34:33;1.93;;;1.37;;
6251;SDS011;3159;52.414;9.784;2022-08-11T14:37:04;1.60;;;1.23;;
6251;SDS011;3159;52.414;9.784;2022-08-11T14:39:37;2.97;;;1.00;;
6251;SDS011;3159;52.414;9.784;2022-08-11T14:42:07;1.23;;;1.17;;
6251;SDS011;3159;52.414;9.784;2022-08-11T14:44:55;1.30;;;1.20;;
6251;SDS011;3159;52.414;9.784;2022-08-11T14:47:55;2.23;;;1.40;;
6251;SDS011;3159;52.414;9.784;2022-08-11T14:50:26;2.70;;;1.40;;
6251;SDS011;3159;52.414;9.784;2022-08-11T14:52:55;2.43;;;1.43;;
6251;SDS011;3159;52.414;9.784;2022-08-11T14:55:25;1.63;;;1.47;;
6251;SDS011;3159;52.414;9.784;2022-08-11T14:58:12;1.47;;;1.37;;
6251;SDS011;3159;52.414;9.784;2022-08-11T15:00:43;1.27;;;1.17;;
6251;SDS011;3159;52.414;9.784;2022-08-11T15:03:11;2.10;;;1.27;;
6251;SDS011;3159;52.414;9.784;2022-08-11T15:05:44;3.17;;;1.60;;
6251;SDS011;3159;52.414;9.784;2022-08-11T15:08:13;3.07;;;1.37;;
6251;SDS011;3159;52.414;9.784;2022-08-11T15:10:41;1.53;;;1.43;;
6251;SDS011;3159;52.414;9.784;2022-08-11T15:13:09;1.43;;;1.33;;
6251;SDS011;3159;52.414;9.784;2022-08-11T15:15:36;1.73;;;1.27;;
6251;SDS011;3159;52.414;9.784;2022-08-11T15:18:24;1.73;;;1.30;;
6251;SDS011;3159;52.414;9.784;2022-08-11T15:20:52;1.43;;;1.30;;
6251;SDS011;3159;52.414;9.784;2022-08-11T15:23:37;1.27;;;1.13;;
6251;SDS011;3159;52.414;9.784;2022-08-11T15:26:24;1.90;;;1.43;;
6251;SDS011;3159;52.414;9.784;2022-08-11T15:29:16;2.70;;;1.30;;
6251;SDS011;3159;52.414;9.784;2022-08-11T15:32:04;1.63;;;1.30;;
6251;SDS011;3159;52.414;9.784;2022-08-11T15:34:55;1.23;;;1.13;;
6251;SDS011;3159;52.414;9.784;2022-08-11T15:37:57;1.53;;;1.00;;
6251;SDS011;3159;52.414;9.784;2022-08-11T15:40:28;1.40;;;1.30;;
6251;SDS011;3159;52.414;9.784;2022-08-11T15:43:19;1.50;;;1.20;;
6251;SDS011;3159;52.414;9.784;2022-08-11T15:46:06;1.93;;;1.40;;
6251;SDS011;3159;52.414;9.784;2022-08-11T15:48:43;2.10;;;1.27;;
6251;SDS011;3159;52.414;9.784;2022-08-11T15:51:17;1.40;;;1.17;;
6251;SDS011;3159;52.414;9.784;2022-08-11T15:53:50;1.73;;;1.10;;
6251;SDS011;3159;52.414;9.784;2022-08-11T15:56:19;1.23;;;1.10;;
6251;SDS011;3159;52.414;9.784;2022-08-11T15:58:47;1.40;;;1.30;;
6251;SDS011;3159;52.414;9.784;2022-08-11T16:01:36;1.17;;;1.10;;
6251;SDS011;3159;52.414;9.784;2022-08-11T16:04:22;1.77;;;1.30;;
6251;SDS011;3159;52.414;9.784;2022-08-11T16:06:54;1.70;;;1.00;;
6251;SDS011;3159;52.414;9.784;2022-08-11T16:09:29;1.83;;;1.13;;
6251;SDS011;3159;52.414;9.784;2022-08-11T16:12:01;1.47;;;1.00;;
6251;SDS011;3159;52.414;9.784;2022-08-11T16:14:30;1.70;;;1.20;;
6251;SDS011;3159;52.414;9.784;2022-08-11T16:17:18;3.50;;;1.30;;
6251;SDS011;3159;52.414;9.784;2022-08-11T16:19:50;1.73;;;1.10;;
6251;SDS011;3159;52.414;9.784;2022-08-11T16:22:21;1.10;;;1.00;;
6251;SDS011;3159;52.414;9.784;2022-08-11T16:24:58;1.40;;;1.10;;
6251;SDS011;3159;52.414;9.784;2022-08-11T16:27:26;2.30;;;0.97;;
6251;SDS011;3159;52.414;9.784;2022-08-11T16:29:58;2.37;;;1.00;;
6251;SDS011;3159;52.414;9.784;2022-08-11T16:32:29;0.93;;;0.93;;
6251;SDS011;3159;52.414;9.784;2022-08-11T16:34:59;1.70;;;1.00;;
6251;SDS011;3159;52.414;9.784;2022-08-11T16:37:48;3.67;;;1.30;;
6251;SDS011;3159;52.414;9.784;2022-08-11T16:40:34;2.90;;;1.50;;
6251;SDS011;3159;52.414;9.784;2022-08-11T16:43:05;1.53;;;1.43;;
6251;SDS011;3159;52.414;9.784;2022-08-11T16:45:52;1.20;;;1.10;;
6251;SDS011;3159;52.414;9.784;2022-08-11T16:48:38;1.13;;;1.10;;
6251;SDS011;3159;52.414;9.784;2022-08-11T16:51:09;1.77;;;1.20;;
6251;SDS011;3159;52.414;9.784;2022-08-11T16:53:39;1.13;;;0.97;;
6251;SDS011;3159;52.414;9.784;2022-08-11T16:56:10;1.30;;;1.20;;
6251;SDS011;3159;52.414;9.784;2022-08-11T16:58:40;3.10;;;1.40;;
6251;SDS011;3159;52.414;9.784;2022-08-11T17:01:27;1.93;;;1.83;;
6251;SDS011;3159;52.414;9.784;2022-08-11T17:03:59;1.40;;;1.30;;
6251;SDS011;3159;52.414;9.784;2022-08-11T17:06:50;2.30;;;1.60;;
6251;SDS011;3159;52.414;9.784;2022-08-11T17:09:37;1.90;;;1.77;;
6251;SDS011;3159;52.414;9.784;2022-08-11T17:12:23;1.30;;;1.20;;
6251;SDS011;3159;52.414;9.784;2022-08-11T17:15:10;1.40;;;1.30;;